Daily Summary

Last 30 Days

Daily Data | Pacific/Honolulu
as of 7/13/20 8:37 AM HST
Date Daily Max Temp (°F) Max Temp Time Daily Min Temp (°F) Min Temp Time Daily Rain (In) Seasonal Rainfall (In) Wind Spd (mph) Daily Max Wind (mph) Max Wind Time Max Wind Dir (°) Daily Solar Rad (Cal/cm2) Daily ETo (in) Dew Pt (°F) Max RH (%) Min RH (%) Max Press (inHg) Time of Max Press Min Press (inHg) Time of Min Press Bat Volt Min Day (V)
7/12/20 82.5 1007 75.7 1543 0.00 12.31 7.5 26.8 1313 NE | 40 469 0.193 66.2 75 55 30.11 0001 29.98 1711 12.6
7/11/20 84.2 1155 75.9 0521 0.00 12.31 8.3 28.5 1502 NE | 49 482 0.200 67.8 80 58 30.12 2322 30.03 1654 12.6
7/10/20 84.7 1152 76.0 0702 0.00 12.31 8.6 29.5 1259 NNE | 28 621 0.242 67.6 79 53 30.10 2241 30.00 1625 12.7
7/9/20 84.8 1114 74.4 0547 0.06 12.31 7.6 24.7 1219 NNE | 31 598 0.217 68.8 86 58 30.10 0004 29.99 1721 12.6
7/8/20 82.7 1113 75.5 0614 0.02 12.25 8.7 32.3 1302 NE | 36 556 0.217 67.0 78 58 30.12 2245 30.01 1620 12.6
7/7/20 84.0 1245 74.7 0040 0.03 12.23 7.5 25.9 1658 NE | 39 612 0.230 67.4 82 55 30.12 2250 30.00 1540 12.6
7/6/20 85.1 1238 75.7 2254 0.00 12.20 7.4 22.4 1445 NNE | 32 632 0.239 67.3 82 53 30.10 2243 30.00 1547 12.7
7/5/20 86.7 1427 75.5 0538 0.00 12.20 4.4 17.7 1637 NE | 36 503 0.184 69.4 81 54 30.09 2234 29.97 1701 12.7
7/4/20 84.2 1544 73.3 0533 0.55 12.20 4.2 18.4 1450 NE | 35 394 0.138 70.9 95 61 30.07 2238 29.96 1606 12.7
7/3/20 83.6 1408 75.4 0013 0.01 11.65 5.6 22.0 1518 NE | 35 609 0.208 68.6 85 59 30.04 0003 29.93 1735 12.6
7/2/20 84.4 1329 75.6 2357 0.00 11.64 6.4 23.8 1316 NNE | 16 539 0.205 67.5 80 55 30.07 0018 29.96 1550 12.7
7/1/20 84.2 1224 76.4 2100 0.00 11.64 7.2 27.5 1018 NNE | 30 608 0.228 67.5 82 50 30.07 2320 29.98 1610 12.7
6/30/20 85.3 1441 77.4 0406 0.00 11.64 6.4 22.1 1159 NE | 35 619 0.233 67.6 74 53 30.07 2313 29.97 1450 12.8
6/29/20 86.0 1351 75.0 0316 0.00 11.64 5.7 22.9 1822 NNE | 28 597 0.220 68.8 88 55 30.05 2236 29.93 1658 12.7
6/28/20 85.0 1342 74.9 0539 0.00 11.64 5.8 21.0 1539 NNE | 30 712 0.250 67.7 79 55 30.03 0828 29.93 1634 12.7
6/27/20 84.4 1230 75.0 0247 0.02 11.64 5.8 21.8 1507 NE | 36 558 0.196 68.6 85 59 30.11 0006 29.98 1629 12.8
6/26/20 84.5 1248 76.8 0509 0.00 11.62 8.4 31.6 1230 NNE | 33 685 0.260 67.1 74 52 30.12 2255 30.02 1556 12.8
6/25/20 84.5 1313 74.8 0302 0.00 11.62 6.7 23.8 1912 NE | 45 558 0.205 69.2 85 59 30.09 2315 29.98 1617 12.7
6/24/20 84.4 1112 76.1 0607 0.00 11.62 6.6 23.0 1338 NE | 38 668 0.239 68.2 79 57 30.07 2342 29.97 1656 12.8
6/23/20 85.3 1432 73.9 0241 0.00 11.62 5.9 20.7 1120 NE | 45 613 0.226 66.6 81 51 30.07 0003 29.98 1629 12.8
6/22/20 83.6 1255 75.1 0331 0.00 11.62 6.8 21.2 1035 NNE | 27 663 0.245 65.6 76 51 30.09 0001 30.00 1750 12.8
6/21/20 83.7 1336 73.1 0328 0.02 11.62 5.9 20.6 1402 NNE | 27 644 0.228 66.6 86 56 30.11 0924 30.03 1629 12.8
6/20/20 83.3 1251 73.2 0307 0.04 11.60 7.4 26.0 1416 N | 11 649 0.227 67.6 85 58 30.12 2228 30.01 0442 12.8
6/19/20 82.0 1419 73.8 0403 0.01 11.56 7.4 28.9 1340 NNE | 27 431 0.171 67.1 84 58 30.12 0826 30.01 1622 12.8
6/18/20 83.9 1304 75.3 0617 0.01 11.55 7.3 31.3 1217 NNE | 30 544 0.199 68.7 88 57 30.13 2218 30.02 1715 12.8
6/17/20 84.0 1401 74.6 0454 0.00 11.54 6.3 21.8 1228 NE | 51 675 0.237 66.8 82 55 30.13 0001 30.01 1621 12.8
6/16/20 80.6 1326 73.8 0416 0.11 11.54 6.6 25.0 1249 NNE | 32 526 0.176 68.3 87 64 30.15 0913 30.06 1529 12.7
6/15/20 83.5 1138 75.1 2309 0.00 11.43 8.1 25.7 1152 NE | 48 643 0.243 66.1 81 52 30.14 2241 30.04 0324 12.8
6/14/20 82.7 1309 75.6 0414 0.00 11.43 8.0 24.4 1507 NE | 47 596 0.226 65.8 77 59 30.12 2307 30.02 0449 12.8
6/13/20 83.9 1207 75.6 0434 0.00 11.43 9.0 29.7 1326 NE | 37 712 0.274 64.2 75 48 30.14 0001 30.02 1619 12.8
Max 86.7 - 77.4 - 0.55 - 9.0 32.3 - - 712 0.274 70.9 95 64 30.15 - 30.06 - 12.8
Avg - - - - - - 6.9 - - - - - 67.5 - - - - - - -
Min 80.6 - 73.1 - 0.00 - 4.2 17.7 - - 394 0.138 64.2 74 48 30.03 - 29.93 - 12.6